Time;durP1;ratioP1;P1;durP2;ratioP2;P2;SDS_P1;SDS_P2;PMS_P1;PMS_P2;Temp;Humidity;BMP_temperature;BMP_pressure;BME280_temperature;BME280_humidity;BME280_pressure;Samples;Min_cycle;Max_cycle;Signal;HPM_P1;HPM_P2
2022/03/27 00:02:06;;;;;;;21.33;7.45;;;;;;;7.32;85.09;103007.84;4993969;28;20433;-76
2022/03/27 00:04:31;;;;;;;18.13;6.88;;;;;;;7.29;83.91;103013.25;4993449;28;20096;-77
2022/03/27 00:06:57;;;;;;;21.05;7.90;;;;;;;7.29;85.15;103007.91;4993582;28;20385;-77
2022/03/27 00:09:22;;;;;;;18.60;7.10;;;;;;;7.27;84.40;103007.06;5012048;28;20045;-77
2022/03/27 00:11:48;;;;;;;21.80;7.43;;;;;;;7.29;85.06;103015.94;5013043;28;20026;-77
2022/03/27 00:14:13;;;;;;;21.00;6.70;;;;;;;7.31;85.93;103015.91;5011820;28;20025;-77
2022/03/27 00:16:38;;;;;;;16.75;6.15;;;;;;;7.29;85.74;103010.59;5011777;28;20369;-77
2022/03/27 00:19:03;;;;;;;17.25;6.55;;;;;;;7.32;86.82;103013.19;5012986;28;20026;-77
2022/03/27 00:21:29;;;;;;;22.65;7.65;;;;;;;7.35;87.17;103012.22;5010955;28;20034;-77
2022/03/27 00:23:55;;;;;;;19.30;6.28;;;;;;;7.40;87.57;103010.31;5012730;28;20030;-77
2022/03/27 00:26:21;;;;;;;19.42;7.03;;;;;;;7.45;87.02;103013.75;5000130;28;20042;-77
2022/03/27 00:28:48;;;;;;;22.90;7.03;;;;;;;7.51;87.34;103012.69;4993544;28;20030;-77
2022/03/27 00:31:14;;;;;;;17.98;6.53;;;;;;;7.54;86.84;103007.28;4993363;28;20030;-77
2022/03/27 00:33:41;;;;;;;20.10;6.82;;;;;;;7.54;87.03;103001.94;4991622;28;20509;-77
2022/03/27 00:36:10;;;;;;;18.08;6.68;;;;;;;7.57;86.83;103006.31;5008079;28;20034;-77
2022/03/27 00:38:36;;;;;;;19.25;5.80;;;;;;;7.51;86.08;103000.22;4992673;28;20074;-77
2022/03/27 00:41:01;;;;;;;18.55;6.30;;;;;;;7.53;86.58;103000.19;5003617;28;20045;-76
2022/03/27 00:43:27;;;;;;;20.35;6.53;;;;;;;7.49;85.96;103003.84;5009423;28;20462;-77
2022/03/27 00:45:53;;;;;;;18.83;6.18;;;;;;;7.42;85.29;103000.44;5009422;28;20034;-77
2022/03/27 00:48:24;;;;;;;18.45;6.97;;;;;;;7.35;85.32;103004.22;5009977;28;20068;-77
2022/03/27 00:50:51;;;;;;;19.92;6.57;;;;;;;7.27;85.02;103004.38;5011382;28;20053;-77
2022/03/27 00:53:17;;;;;;;18.48;6.15;;;;;;;7.16;85.04;103004.66;5010793;28;20409;-75
2022/03/27 00:55:44;;;;;;;19.50;6.75;;;;;;;7.08;85.33;103003.06;5011651;28;20060;-75
2022/03/27 00:58:11;;;;;;;18.17;6.38;;;;;;;7.00;85.47;103001.47;5010279;28;20021;-77
2022/03/27 01:00:39;;;;;;;22.98;5.80;;;;;;;6.93;85.81;103005.19;5012609;28;20042;-77
2022/03/27 01:03:13;;;;;;;18.85;6.28;;;;;;;6.88;86.12;102998.19;5010753;28;20037;-76
2022/03/27 01:05:39;;;;;;;20.73;6.15;;;;;;;6.86;86.65;102998.22;5008917;28;20049;-76
2022/03/27 01:08:06;;;;;;;18.88;6.50;;;;;;;6.86;87.20;102992.88;5010802;28;20128;-76
2022/03/27 01:10:32;;;;;;;19.02;6.90;;;;;;;6.89;87.75;102992.81;5010399;28;20029;-76
2022/03/27 01:12:58;;;;;;;18.13;5.93;;;;;;;6.89;87.00;102992.81;5010539;28;20169;-76
2022/03/27 01:15:40;;;;;;;18.30;6.15;;;;;;;6.87;86.55;102989.31;5011946;28;20520;-76
2022/03/27 01:18:06;;;;;;;17.48;6.05;;;;;;;6.92;88.60;102990.06;5010672;28;20032;-76
2022/03/27 01:20:34;;;;;;;19.38;6.38;;;;;;;6.88;87.11;102988.41;5007980;28;20038;-76
2022/03/27 01:23:00;;;;;;;19.80;6.68;;;;;;;6.85;86.59;102992.91;5011449;28;20144;-76
2022/03/27 01:25:25;;;;;;;17.83;6.32;;;;;;;6.79;86.08;102992.16;5011496;28;20112;-76
2022/03/27 01:27:51;;;;;;;19.25;6.88;;;;;;;6.72;86.11;102997.66;5010308;28;20168;-76
2022/03/27 01:30:16;;;;;;;19.58;6.40;;;;;;;6.65;86.02;102986.25;5011751;28;20501;-76
2022/03/27 01:32:41;;;;;;;18.85;6.50;;;;;;;6.60;86.38;102993.47;5009953;28;20025;-76
2022/03/27 01:35:07;;;;;;;18.90;7.18;;;;;;;6.50;86.28;102995.50;5011683;28;20029;-76
2022/03/27 01:37:33;;;;;;;19.20;7.22;;;;;;;6.46;86.94;103000.00;4995689;28;20085;-76
2022/03/27 01:39:58;;;;;;;25.52;6.38;;;;;;;6.46;87.51;102999.13;5010646;28;20737;-76
2022/03/27 01:42:23;;;;;;;19.33;6.53;;;;;;;6.42;87.40;102992.09;5010582;28;20535;-76
2022/03/27 01:44:48;;;;;;;21.65;7.15;;;;;;;6.41;87.97;102991.22;5009821;28;20029;-76
2022/03/27 01:47:14;;;;;;;24.10;7.70;;;;;;;6.42;88.07;102997.44;5011000;28;20497;-76
2022/03/27 01:49:42;;;;;;;21.83;7.13;;;;;;;6.39;87.92;102997.50;5010616;28;20041;-76
2022/03/27 01:52:07;;;;;;;20.05;7.40;;;;;;;6.40;87.21;102993.88;5009995;28;20109;-76
2022/03/27 01:54:33;;;;;;;17.80;6.78;;;;;;;6.37;87.62;102993.97;4994434;28;20117;-76
2022/03/27 01:56:58;;;;;;;18.67;6.35;;;;;;;6.32;87.05;102993.19;5005580;28;20029;-76
2022/03/27 01:59:24;;;;;;;14.50;5.57;;;;;;;6.27;86.90;102996.84;5010989;28;20091;-76
2022/03/27 02:01:49;;;;;;;15.95;5.07;;;;;;;6.22;86.55;102998.75;5011314;28;20045;-76
2022/03/27 02:04:15;;;;;;;16.92;5.22;;;;;;;6.15;86.52;102997.09;5009339;28;20029;-76
2022/03/27 02:06:43;;;;;;;17.55;6.47;;;;;;;6.12;86.45;102991.81;5009746;28;20076;-76
2022/03/27 02:09:10;;;;;;;17.63;6.82;;;;;;;6.10;86.45;102996.28;5004426;28;20032;-76
2022/03/27 02:11:35;;;;;;;16.73;6.38;;;;;;;6.09;86.38;102997.19;5011355;28;20022;-76
2022/03/27 02:14:01;;;;;;;18.60;6.45;;;;;;;6.06;86.81;102991.91;5009743;28;20025;-76
2022/03/27 02:16:26;;;;;;;19.02;6.53;;;;;;;6.02;86.41;102993.78;5011104;28;20086;-76
2022/03/27 02:18:52;;;;;;;18.60;6.40;;;;;;;5.99;86.31;102990.28;5010207;28;20491;-76
2022/03/27 02:21:17;;;;;;;19.05;7.03;;;;;;;5.92;86.66;102995.72;5009825;28;20026;-76
2022/03/27 02:23:43;;;;;;;22.30;8.05;;;;;;;5.88;86.95;102985.13;5009701;28;20029;-76
2022/03/27 02:26:08;;;;;;;24.45;8.05;;;;;;;5.90;87.98;102988.63;5008666;28;20444;-76
2022/03/27 02:28:33;;;;;;;19.17;7.45;;;;;;;5.92;87.84;102990.38;5009979;28;20026;-76
2022/03/27 02:30:59;;;;;;;20.05;7.78;;;;;;;5.98;89.08;102980.53;5011378;28;20055;-76
2022/03/27 02:33:24;;;;;;;20.35;8.18;;;;;;;6.03;90.04;102994.66;5009726;28;20393;-76
2022/03/27 02:35:50;;;;;;;20.98;8.65;;;;;;;6.10;90.73;102985.63;5009726;28;20036;-76
2022/03/27 02:38:15;;;;;;;22.50;8.50;;;;;;;6.18;90.96;102988.13;5011530;28;20658;-76
2022/03/27 02:40:43;;;;;;;24.42;9.70;;;;;;;6.24;91.35;102988.88;5010553;28;20084;-76
2022/03/27 02:43:12;;;;;;;22.40;10.57;;;;;;;6.36;92.82;102989.56;4995553;28;20037;-76
2022/03/27 02:45:38;;;;;;;23.67;11.40;;;;;;;6.47;93.73;102984.84;5009500;28;20113;-76
2022/03/27 02:48:03;;;;;;;24.10;11.98;;;;;;;6.57;94.47;102986.41;5011170;28;20076;-76
2022/03/27 02:50:32;;;;;;;27.55;13.45;;;;;;;6.65;94.96;102973.75;5011214;28;20030;-76
2022/03/27 02:52:58;;;;;;;28.48;14.23;;;;;;;6.73;94.88;102975.38;5010664;28;20041;-76
2022/03/27 02:55:24;;;;;;;30.70;13.98;;;;;;;6.80;95.47;102977.00;5009727;28;20385;-76
2022/03/27 02:57:50;;;;;;;23.75;12.32;;;;;;;6.85;95.50;102979.56;4989910;28;20030;-76
2022/03/27 03:00:16;;;;;;;29.40;14.40;;;;;;;6.89;95.64;102974.09;5010075;28;20557;-76
2022/03/27 03:02:42;;;;;;;31.23;15.07;;;;;;;6.93;95.56;102962.41;5013110;28;20112;-77
2022/03/27 03:05:08;;;;;;;29.20;15.52;;;;;;;6.96;96.07;102974.84;5012573;28;20042;-77
2022/03/27 03:07:33;;;;;;;26.80;14.27;;;;;;;6.97;96.24;102968.59;5014576;28;20030;-76
2022/03/27 03:10:01;;;;;;;31.38;14.90;;;;;;;6.99;96.33;102972.09;5014105;28;20029;-76
2022/03/27 03:12:26;;;;;;;29.88;14.45;;;;;;;7.02;96.04;102973.81;5012932;28;20026;-76
2022/03/27 03:14:55;;;;;;;29.05;14.20;;;;;;;7.03;96.34;102965.75;4996161;28;20401;-76
2022/03/27 03:17:21;;;;;;;28.30;15.57;;;;;;;7.03;96.36;102973.78;5013010;28;20035;-76
2022/03/27 03:19:46;;;;;;;28.88;13.98;;;;;;;7.03;96.67;102965.75;5012897;28;20058;-76
2022/03/27 03:22:12;;;;;;;29.27;15.07;;;;;;;7.05;96.55;102973.75;5012865;28;20061;-76
2022/03/27 03:24:37;;;;;;;25.92;13.38;;;;;;;7.06;96.22;102967.47;4995797;28;20030;-76
2022/03/27 03:27:03;;;;;;;27.85;14.82;;;;;;;7.10;96.26;102969.16;5014173;28;20105;-76
2022/03/27 03:29:28;;;;;;;27.02;14.25;;;;;;;7.11;96.08;102960.22;5013940;28;20029;-76
2022/03/27 03:31:54;;;;;;;27.42;13.68;;;;;;;7.13;95.61;102969.06;5003446;28;20505;-76
2022/03/27 03:34:19;;;;;;;29.35;15.30;;;;;;;7.15;96.06;102964.56;5005728;28;20033;-76
2022/03/27 03:36:45;;;;;;;27.80;15.52;;;;;;;7.14;96.00;102958.34;5014009;28;20088;-76
2022/03/27 03:39:10;;;;;;;27.65;14.43;;;;;;;7.15;96.04;102960.09;5013781;28;20029;-76
2022/03/27 03:41:36;;;;;;;26.77;14.18;;;;;;;7.17;95.87;102960.06;5013099;28;20135;-76
2022/03/27 03:44:01;;;;;;;28.23;14.68;;;;;;;7.17;95.76;102954.72;5013760;28;20030;-76
2022/03/27 03:46:26;;;;;;;26.98;13.80;;;;;;;7.15;96.27;102962.78;5012552;28;20080;-76
2022/03/27 03:48:52;;;;;;;26.55;14.38;;;;;;;7.16;96.09;102958.31;5012231;28;20486;-76
2022/03/27 03:51:17;;;;;;;28.08;15.23;;;;;;;7.17;95.65;102957.38;5013430;28;20033;-76
2022/03/27 03:53:43;;;;;;;26.17;14.57;;;;;;;7.20;95.84;102957.31;5011713;28;20018;-76
2022/03/27 03:56:08;;;;;;;29.85;15.95;;;;;;;7.19;95.85;102966.25;5013642;28;20143;-76
2022/03/27 03:58:33;;;;;;;30.55;14.85;;;;;;;7.18;95.82;102968.03;5012186;28;20639;-76
2022/03/27 04:00:59;;;;;;;28.25;15.75;;;;;;;7.19;95.94;102955.56;5013371;28;20364;-76
2022/03/27 04:03:24;;;;;;;26.48;14.77;;;;;;;7.20;95.83;102967.13;5004610;28;20041;-76
2022/03/27 04:05:49;;;;;;;29.50;14.52;;;;;;;7.22;95.97;102965.28;5013291;28;20401;-76
2022/03/27 04:08:14;;;;;;;27.95;15.82;;;;;;;7.21;96.06;102960.88;5013256;28;20026;-76
2022/03/27 04:10:41;;;;;;;28.00;15.23;;;;;;;7.21;96.06;102966.22;5012054;28;20484;-76
2022/03/27 04:13:07;;;;;;;31.17;16.50;;;;;;;7.21;96.36;102968.91;5012194;28;20026;-76
2022/03/27 04:15:33;;;;;;;26.92;15.73;;;;;;;7.21;96.23;102966.22;5011817;28;20457;-76
2022/03/27 04:18:00;;;;;;;33.22;19.48;;;;;;;7.18;96.36;102970.72;5011663;28;20057;-76
2022/03/27 04:20:25;;;;;;;29.52;17.02;;;;;;;7.20;96.43;102970.69;5009126;28;20030;-76
2022/03/27 04:22:51;;;;;;;30.67;16.42;;;;;;;7.20;96.76;102962.66;5012661;28;20470;-76
2022/03/27 04:25:16;;;;;;;30.75;17.73;;;;;;;7.22;96.48;102963.50;5011898;28;20033;-76
2022/03/27 04:27:41;;;;;;;26.95;16.17;;;;;;;7.22;96.25;102955.50;5012699;28;20481;-76
2022/03/27 04:30:08;;;;;;;27.55;14.48;;;;;;;7.22;96.44;102952.81;5011334;28;20040;-76
2022/03/27 04:32:38;;;;;;;27.08;15.13;;;;;;;7.22;96.40;102960.84;5010886;28;20026;-76
2022/03/27 04:35:07;;;;;;;25.80;14.95;;;;;;;7.22;96.38;102963.50;5013424;28;20025;-76
2022/03/27 04:37:38;;;;;;;29.73;16.27;;;;;;;7.22;96.48;102960.84;5011422;28;20029;-76
2022/03/27 04:40:07;;;;;;;26.92;14.65;;;;;;;7.22;96.23;102962.63;5012852;28;20029;-76
2022/03/27 04:42:32;;;;;;;27.20;14.30;;;;;;;7.20;96.42;102959.97;5011958;28;20033;-76
2022/03/27 04:44:58;;;;;;;28.90;15.00;;;;;;;7.18;96.52;102960.00;5012524;28;20033;-76
2022/03/27 04:47:23;;;;;;;31.08;14.35;;;;;;;7.20;96.86;102961.78;5012270;28;20547;-76
2022/03/27 04:49:48;;;;;;;28.65;14.48;;;;;;;7.16;96.62;102961.00;5011298;28;20076;-76
2022/03/27 04:52:14;;;;;;;31.08;16.55;;;;;;;7.15;97.03;102956.56;5010721;28;20041;-76
2022/03/27 04:54:39;;;;;;;30.08;16.17;;;;;;;7.14;96.99;102966.34;5010197;28;20113;-76
2022/03/27 04:57:05;;;;;;;30.10;15.45;;;;;;;7.14;97.10;102966.34;5011058;28;20127;-76
2022/03/27 04:59:30;;;;;;;29.85;15.77;;;;;;;7.17;96.76;102960.06;5012543;28;20036;-76
2022/03/27 05:02:01;;;;;;;29.30;15.20;;;;;;;7.18;96.67;102970.72;5010455;28;20029;-76
2022/03/27 05:04:27;;;;;;;29.55;14.55;;;;;;;7.21;96.21;102967.09;5010755;28;20150;-77
2022/03/27 05:06:52;;;;;;;27.90;16.02;;;;;;;7.22;96.28;102976.88;5010913;28;20849;-77
2022/03/27 05:09:19;;;;;;;29.08;15.27;;;;;;;7.18;96.39;102972.53;5010940;28;20080;-77
2022/03/27 05:11:44;;;;;;;29.42;16.40;;;;;;;7.14;96.74;102974.38;5011827;28;20072;-77
2022/03/27 05:14:09;;;;;;;32.17;15.55;;;;;;;7.12;96.78;102975.34;5007610;28;20389;-77
2022/03/27 05:16:35;;;;;;;31.05;17.38;;;;;;;7.13;96.72;102977.09;5010150;28;20034;-76
2022/03/27 05:19:00;;;;;;;29.92;16.15;;;;;;;7.12;96.98;102981.56;5010765;28;20497;-76
2022/03/27 05:21:25;;;;;;;30.23;16.90;;;;;;;7.12;96.77;102983.38;5012052;28;20056;-76
2022/03/27 05:23:51;;;;;;;30.80;18.13;;;;;;;7.10;97.24;102982.50;5010289;28;20038;-76
2022/03/27 05:26:17;;;;;;;29.52;16.00;;;;;;;7.11;96.90;102981.59;5011451;28;20033;-76
2022/03/27 05:28:43;;;;;;;30.95;17.25;;;;;;;7.11;97.19;102985.16;5012104;28;20034;-76
2022/03/27 05:31:09;;;;;;;31.42;17.75;;;;;;;7.12;97.33;102980.69;5008446;28;20473;-76
2022/03/27 05:33:38;;;;;;;33.53;17.73;;;;;;;7.13;97.15;102990.47;5011657;28;20083;-76
2022/03/27 05:36:09;;;;;;;31.42;17.98;;;;;;;7.12;97.15;102984.25;5010423;28;20120;-76
2022/03/27 05:38:38;;;;;;;31.73;17.42;;;;;;;7.14;97.12;102986.88;5011756;28;20101;-76
2022/03/27 05:41:04;;;;;;;35.53;18.88;;;;;;;7.16;97.09;102993.09;5010391;28;20485;-76
2022/03/27 05:43:29;;;;;;;30.48;18.38;;;;;;;7.16;97.03;102995.75;5011596;28;20026;-76
2022/03/27 05:45:55;;;;;;;31.83;18.10;;;;;;;7.16;97.26;102988.59;5011724;28;20132;-76
2022/03/27 05:48:21;;;;;;;32.40;17.25;;;;;;;7.15;97.28;102994.88;5009755;28;20033;-76
2022/03/27 05:50:46;;;;;;;32.88;18.25;;;;;;;7.13;97.34;102991.34;5009909;28;20041;-76
2022/03/27 05:53:12;;;;;;;33.75;18.85;;;;;;;7.13;97.27;102990.47;5011690;28;20034;-76
2022/03/27 05:55:37;;;;;;;32.28;18.55;;;;;;;7.11;97.10;102993.16;5011588;28;20041;-76
2022/03/27 05:58:03;;;;;;;33.17;17.27;;;;;;;7.10;96.90;103003.91;5011144;28;20135;-76
2022/03/27 06:00:28;;;;;;;32.78;17.65;;;;;;;7.09;96.72;102991.47;5011733;28;20148;-76
2022/03/27 06:02:54;;;;;;;30.50;15.75;;;;;;;7.06;96.53;102999.53;5009889;28;20029;-77
2022/03/27 06:05:23;;;;;;;31.75;16.38;;;;;;;7.03;96.56;103002.28;4992857;28;20397;-77
2022/03/27 06:07:51;;;;;;;32.90;18.05;;;;;;;7.00;96.18;103008.63;4988423;28;20026;-76
2022/03/27 06:10:20;;;;;;;32.08;15.70;;;;;;;6.98;96.29;103015.78;5009881;28;20112;-76
2022/03/27 06:12:45;;;;;;;30.52;15.95;;;;;;;6.96;96.13;103018.47;4995490;28;20034;-76
2022/03/27 06:15:12;;;;;;;27.73;14.88;;;;;;;6.92;96.43;103011.44;5011534;28;20807;-76
2022/03/27 06:17:39;;;;;;;27.13;12.80;;;;;;;6.90;96.35;103020.44;5011258;28;20033;-76
2022/03/27 06:20:05;;;;;;;26.77;13.07;;;;;;;6.85;96.61;103015.16;5009936;28;20029;-76
2022/03/27 06:22:31;;;;;;;29.42;14.57;;;;;;;6.82;96.21;103013.47;5011175;28;20041;-76
2022/03/27 06:24:56;;;;;;;27.83;14.02;;;;;;;6.85;96.36;103017.84;5010139;28;20393;-76
2022/03/27 06:27:21;;;;;;;25.67;12.15;;;;;;;6.81;96.23;103017.03;5011058;28;20477;-76
2022/03/27 06:29:46;;;;;;;29.95;13.85;;;;;;;6.80;96.13;103017.09;5011393;28;20127;-76
2022/03/27 06:32:12;;;;;;;29.60;13.60;;;;;;;6.80;96.03;103023.28;5010623;28;20374;-76
2022/03/27 06:34:37;;;;;;;27.70;12.30;;;;;;;6.78;96.13;103025.13;5011222;28;20026;-76
2022/03/27 06:37:03;;;;;;;29.52;13.88;;;;;;;6.78;95.92;103033.16;5009491;28;20017;-76
2022/03/27 06:39:28;;;;;;;33.42;15.13;;;;;;;6.78;96.30;103027.81;5013077;28;20073;-76
2022/03/27 06:41:53;;;;;;;32.53;16.25;;;;;;;6.78;96.07;103027.81;5014547;28;20026;-76
2022/03/27 06:44:19;;;;;;;32.50;16.48;;;;;;;6.81;96.44;103029.53;5014855;28;20034;-76
2022/03/27 06:46:44;;;;;;;28.88;15.25;;;;;;;6.79;96.08;103034.03;5014427;28;20444;-76
2022/03/27 06:49:09;;;;;;;33.13;16.60;;;;;;;6.79;96.47;103032.25;5013785;28;20493;-76
2022/03/27 06:51:35;;;;;;;33.70;17.38;;;;;;;6.79;96.75;103029.59;5014762;28;20030;-76
2022/03/27 06:54:01;;;;;;;31.20;16.08;;;;;;;6.81;96.72;103029.53;5013797;28;20064;-76
2022/03/27 06:56:27;;;;;;;35.00;17.35;;;;;;;6.81;96.53;103035.75;5013207;28;20069;-76
2022/03/27 06:58:52;;;;;;;33.58;16.17;;;;;;;6.82;96.45;103025.94;5013422;28;20080;-76
2022/03/27 07:04:05;;;;;;;34.88;18.75;;;;;;;6.83;96.73;103031.25;5014591;28;20044;-77
2022/03/27 07:06:30;;;;;;;32.83;17.33;;;;;;;6.84;96.50;103032.16;5013089;28;20481;-76
2022/03/27 07:08:56;;;;;;;33.70;18.30;;;;;;;6.88;97.16;103030.28;5013448;28;20068;-76
2022/03/27 07:11:21;;;;;;;38.22;17.75;;;;;;;6.84;96.81;103029.47;5013698;28;20095;-76
2022/03/27 07:13:47;;;;;;;33.08;17.98;;;;;;;6.83;96.55;103028.56;5014157;28;20393;-76
2022/03/27 07:16:13;;;;;;;32.00;16.73;;;;;;;6.85;96.73;103025.88;5012736;28;20037;-76
2022/03/27 07:18:38;;;;;;;35.30;17.27;;;;;;;6.84;96.61;103034.81;5013811;28;20036;-76
2022/03/27 07:21:06;;;;;;;31.90;15.85;;;;;;;6.84;96.77;103037.50;5011777;28;20037;-76
2022/03/27 07:23:32;;;;;;;34.03;16.98;;;;;;;6.87;96.79;103025.81;5012171;28;20120;-76
2022/03/27 07:25:57;;;;;;;35.85;17.98;;;;;;;6.88;96.66;103023.16;5012828;28;20557;-76
2022/03/27 07:28:25;;;;;;;35.35;18.30;;;;;;;6.90;96.70;103021.31;5003645;28;20042;-76
2022/03/27 07:30:50;;;;;;;37.38;19.85;;;;;;;6.92;96.78;103026.63;5012064;28;20061;-76
2022/03/27 07:33:17;;;;;;;36.72;19.15;;;;;;;6.94;96.96;103020.34;5013751;28;20486;-76
2022/03/27 07:35:42;;;;;;;35.70;18.25;;;;;;;6.98;96.63;103030.03;5012399;28;20065;-76
2022/03/27 07:38:08;;;;;;;39.13;20.33;;;;;;;7.00;96.88;103030.88;5014004;28;20057;-76
2022/03/27 07:40:34;;;;;;;36.53;20.20;;;;;;;7.07;96.68;103033.41;5013603;28;20044;-76
2022/03/27 07:43:00;;;;;;;39.17;20.55;;;;;;;7.08;96.40;103036.03;5012730;28;20038;-76
2022/03/27 07:45:29;;;;;;;38.88;20.25;;;;;;;7.07;96.40;103033.41;5013289;28;20397;-76
2022/03/27 07:47:56;;;;;;;37.22;19.60;;;;;;;7.10;96.34;103028.88;5011313;28;20042;-76
2022/03/27 07:50:24;;;;;;;37.50;20.48;;;;;;;7.11;95.85;103030.59;5013790;28;20057;-76
2022/03/27 07:52:49;;;;;;;38.00;21.00;;;;;;;7.08;95.94;103036.03;5013447;28;20493;-76
2022/03/27 07:55:17;;;;;;;39.88;22.17;;;;;;;7.06;96.10;103026.28;5011436;28;20103;-76
2022/03/27 07:57:42;;;;;;;36.10;19.60;;;;;;;7.06;96.46;103032.53;5013515;28;20531;-76
2022/03/27 08:00:10;;;;;;;35.53;18.15;;;;;;;7.06;96.13;103027.19;5011890;28;20113;-76
2022/03/27 08:02:36;;;;;;;36.83;19.90;;;;;;;7.10;95.86;103027.97;5011179;28;20030;-77
2022/03/27 08:05:01;;;;;;;36.97;19.20;;;;;;;7.11;95.96;103033.28;5012843;28;20049;-77
2022/03/27 08:07:27;;;;;;;36.78;18.25;;;;;;;7.09;95.50;103031.59;5011787;28;20501;-77
2022/03/27 08:09:53;;;;;;;38.63;20.25;;;;;;;7.12;95.45;103028.84;5012603;28;20025;-76
2022/03/27 08:12:20;;;;;;;35.30;20.20;;;;;;;7.17;95.52;103027.81;5013211;28;20385;-76
2022/03/27 08:14:48;;;;;;;36.45;19.63;;;;;;;7.18;95.00;103028.69;5012953;28;20030;-76
2022/03/27 08:17:14;;;;;;;33.40;17.50;;;;;;;7.19;94.37;103030.44;5009745;28;20104;-76
2022/03/27 08:19:39;;;;;;;39.00;19.65;;;;;;;7.17;94.59;103024.25;5012792;28;20022;-76
2022/03/27 08:22:04;;;;;;;37.38;20.77;;;;;;;7.18;94.67;103024.19;5013068;28;20034;-76
2022/03/27 08:24:30;;;;;;;35.47;19.05;;;;;;;7.20;94.84;103028.66;4994989;28;20037;-76
2022/03/27 08:26:55;;;;;;;34.95;19.80;;;;;;;7.22;94.92;103025.03;5012877;28;20033;-76
2022/03/27 08:29:25;;;;;;;35.38;19.00;;;;;;;7.23;94.95;103021.41;5010916;28;20034;-76
2022/03/27 08:31:51;;;;;;;39.78;20.38;;;;;;;7.24;94.80;103036.56;5013372;28;20025;-76
2022/03/27 08:34:18;;;;;;;34.83;17.50;;;;;;;7.22;94.23;103032.16;4999806;28;20124;-76
2022/03/27 08:36:44;;;;;;;40.33;20.92;;;;;;;7.25;94.68;103038.31;5010925;28;20036;-77
2022/03/27 08:39:10;;;;;;;37.78;21.02;;;;;;;7.29;94.53;103040.00;5012891;28;20026;-77
2022/03/27 08:41:36;;;;;;;36.13;20.17;;;;;;;7.30;94.18;103031.03;5013250;28;20049;-77
2022/03/27 08:44:01;;;;;;;38.50;20.77;;;;;;;7.29;94.35;103026.63;5012538;28;20038;-76
2022/03/27 08:46:28;;;;;;;37.78;20.00;;;;;;;7.31;94.67;103029.28;5012080;28;20042;-76
2022/03/27 08:49:00;;;;;;;41.10;21.17;;;;;;;7.31;94.29;103032.81;5014220;28;20029;-76
2022/03/27 08:51:27;;;;;;;38.25;21.30;;;;;;;7.35;94.10;103023.81;5018854;28;20034;-76
2022/03/27 08:54:12;;;;;;;36.17;19.83;;;;;;;7.40;94.14;103025.50;5010110;28;20393;-76
2022/03/27 08:56:37;;;;;;;38.72;21.38;;;;;;;7.40;93.68;103025.50;5012980;28;20030;-76
2022/03/27 08:59:06;;;;;;;40.38;21.92;;;;;;;7.40;93.45;103030.84;5011806;28;20075;-76
2022/03/27 09:01:32;;;;;;;36.45;20.52;;;;;;;7.43;93.14;103036.13;5012458;28;20036;-76
2022/03/27 09:03:58;;;;;;;37.35;19.23;;;;;;;7.49;93.40;103035.94;5011049;28;20397;-76
2022/03/27 09:06:25;;;;;;;38.22;21.38;;;;;;;7.53;93.29;103043.84;5018459;28;20115;-76
2022/03/27 09:08:53;;;;;;;36.50;19.65;;;;;;;7.55;92.47;103046.50;5011453;28;20413;-77
2022/03/27 09:11:20;;;;;;;35.70;19.23;;;;;;;7.55;91.96;103046.50;5012417;28;20032;-76
2022/03/27 09:13:49;;;;;;;35.10;19.17;;;;;;;7.55;92.29;103046.50;5010324;28;20033;-76
2022/03/27 09:16:16;;;;;;;33.88;17.13;;;;;;;7.57;91.85;103043.78;5011048;28;20512;-76
2022/03/27 09:18:53;;;;;;;33.35;18.77;;;;;;;7.60;91.41;103054.41;5011286;28;20029;-76
2022/03/27 09:21:23;;;;;;;31.13;16.70;;;;;;;7.57;90.75;103051.81;5008441;28;20076;-75
2022/03/27 09:23:59;;;;;;;32.90;16.27;;;;;;;7.58;90.75;103056.25;5011326;28;20163;-76
2022/03/27 09:26:26;;;;;;;28.20;12.90;;;;;;;7.53;90.22;103056.38;5011673;28;20117;-77
2022/03/27 09:28:53;;;;;;;29.23;13.48;;;;;;;7.46;89.87;103054.75;5011260;28;20137;-76
2022/03/27 09:31:19;;;;;;;30.17;14.50;;;;;;;7.46;90.32;103060.13;5011866;28;20056;-76
2022/03/27 09:33:51;;;;;;;29.15;15.20;;;;;;;7.50;90.59;103059.13;5011476;28;20062;-77
2022/03/27 09:36:20;;;;;;;29.73;16.00;;;;;;;7.54;90.65;103055.47;5007132;28;20695;-76
2022/03/27 09:39:00;;;;;;;29.05;15.98;;;;;;;7.62;90.29;103052.59;5009677;28;20091;-76
2022/03/27 09:41:51;;;;;;;26.92;13.55;;;;;;;7.59;89.56;103050.84;5006227;28;20503;-77
2022/03/27 09:44:19;;;;;;;28.98;14.43;;;;;;;7.57;89.31;103049.13;5010814;28;20034;-76
2022/03/27 09:47:08;;;;;;;27.00;13.65;;;;;;;7.62;90.23;103050.78;5010038;28;20481;-76
2022/03/27 09:49:34;;;;;;;29.27;13.27;;;;;;;7.68;90.07;103050.59;5007661;28;20042;-77
2022/03/27 09:52:16;;;;;;;28.20;13.15;;;;;;;7.68;89.48;103042.56;5011216;28;20143;-77
2022/03/27 09:54:47;;;;;;;29.23;14.02;;;;;;;7.66;89.38;103039.06;5011123;28;20026;-77
2022/03/27 09:57:30;;;;;;;27.42;13.43;;;;;;;7.62;89.95;103032.03;5005200;28;20034;-76
2022/03/27 09:59:57;;;;;;;29.38;15.10;;;;;;;7.65;89.58;103029.28;5009331;28;20033;-76
2022/03/27 10:02:24;;;;;;;28.67;15.02;;;;;;;7.70;89.06;103023.81;5009192;28;20054;-76
2022/03/27 10:04:58;;;;;;;30.63;15.00;;;;;;;7.75;89.54;103031.75;5010155;28;20453;-76
2022/03/27 10:07:25;;;;;;;32.47;16.83;;;;;;;7.79;89.33;103022.69;5011201;28;20033;-76
2022/03/27 10:09:52;;;;;;;31.25;15.50;;;;;;;7.84;89.40;103016.28;5011248;28;20132;-76
2022/03/27 10:12:18;;;;;;;31.48;16.17;;;;;;;7.88;89.16;103011.75;5011219;28;20061;-76
2022/03/27 10:14:44;;;;;;;31.65;15.70;;;;;;;7.94;89.55;103016.06;5010955;28;20031;-76
2022/03/27 10:17:10;;;;;;;32.47;16.73;;;;;;;7.98;89.27;103009.69;5010672;28;20030;-76
2022/03/27 10:19:46;;;;;;;29.45;15.65;;;;;;;8.11;89.64;103010.22;4997364;28;20551;-76
2022/03/27 10:22:20;;;;;;;31.13;16.58;;;;;;;8.16;88.72;103006.50;5014962;28;20042;-76
2022/03/27 10:24:46;;;;;;;34.58;18.70;;;;;;;8.24;88.96;103003.59;5014567;28;20045;-76
2022/03/27 10:27:13;;;;;;;31.52;16.30;;;;;;;8.26;88.55;103011.56;5014846;28;20030;-76
2022/03/27 10:29:39;;;;;;;32.47;17.55;;;;;;;8.29;88.52;103003.47;5011908;28;20385;-77
2022/03/27 10:32:09;;;;;;;30.60;17.60;;;;;;;8.30;87.69;103006.13;5013958;28;20026;-77
2022/03/27 10:34:39;;;;;;;31.60;16.58;;;;;;;8.30;87.38;102998.06;5014333;28;20037;-76
2022/03/27 10:37:26;;;;;;;31.38;16.70;;;;;;;8.31;87.78;103004.28;4995367;28;20538;-76
2022/03/27 10:40:18;;;;;;;31.65;18.33;;;;;;;8.34;88.20;102999.72;4994023;28;20476;-76
2022/03/27 10:42:51;;;;;;;30.95;16.25;;;;;;;8.39;87.12;102996.91;4995443;28;20504;-77
2022/03/27 10:45:21;;;;;;;30.77;16.13;;;;;;;8.46;86.88;102990.47;5011813;28;20065;-77
2022/03/27 10:48:16;;;;;;;28.52;15.20;;;;;;;8.54;87.39;102988.44;5013318;28;20030;-77
2022/03/27 10:50:52;;;;;;;31.08;17.25;;;;;;;8.65;86.90;102989.91;5014095;28;20551;-77
2022/03/27 10:53:23;;;;;;;28.25;15.55;;;;;;;8.72;85.90;102978.94;4996510;28;20030;-77
2022/03/27 10:55:51;;;;;;;30.70;16.45;;;;;;;8.87;87.97;102987.44;4996662;28;20022;-77
2022/03/27 10:58:28;;;;;;;31.88;15.75;;;;;;;8.94;85.13;102988.13;5013583;28;20389;-76
2022/03/27 11:00:53;;;;;;;30.15;16.40;;;;;;;8.94;84.09;102980.09;5013139;28;20120;-77
2022/03/27 11:04:04;;;;;;;32.60;17.50;;;;;;;8.98;85.13;102973.69;5012035;28;20113;-77
2022/03/27 11:06:31;;;;;;;29.08;16.38;;;;;;;9.07;85.34;102976.94;5011228;28;20073;-73
2022/03/27 11:08:58;;;;;;;28.15;16.25;;;;;;;9.15;84.98;102968.66;5012198;28;20017;-74
2022/03/27 11:11:52;;;;;;;29.90;16.45;;;;;;;9.29;85.97;102960.13;5013845;28;20533;-73
2022/03/27 11:14:23;;;;;;;29.85;16.92;;;;;;;9.39;84.33;102972.31;5013045;28;20374;-73
2022/03/27 11:17:37;;;;;;;30.95;16.92;;;;;;;9.50;84.93;102968.38;5010320;28;20034;-73
2022/03/27 11:20:05;;;;;;;27.95;15.77;;;;;;;9.58;83.46;102960.94;4991728;28;20039;-73
2022/03/27 11:22:53;;;;;;;33.00;16.75;;;;;;;9.62;82.99;102960.78;5001093;28;20026;-73
2022/03/27 11:25:36;;;;;;;31.83;18.45;;;;;;;9.71;83.76;102964.94;5008949;28;20061;-74